createdAt,value
2017-11-22T00:01:20.432Z,31.13
2017-11-22T00:03:46.865Z,33.87
2017-11-22T00:06:13.299Z,34.27
2017-11-22T00:08:39.735Z,34.07
2017-11-22T00:11:06.170Z,37.27
2017-11-22T00:13:32.611Z,33.37
2017-11-22T00:15:59.037Z,37.63
2017-11-22T00:18:26.198Z,33.63
2017-11-22T00:20:52.634Z,38.63
2017-11-22T00:23:19.063Z,33.87
2017-11-22T00:25:45.496Z,28.10
2017-11-22T00:28:11.825Z,30.97
2017-11-22T00:30:38.261Z,31.63
2017-11-22T00:33:04.702Z,32.87
2017-11-22T00:35:31.848Z,38.40
2017-11-22T00:37:58.396Z,31.10
2017-11-22T00:40:24.817Z,30.40
2017-11-22T00:42:51.262Z,31.00
2017-11-22T00:45:17.686Z,31.40
2017-11-22T00:47:44.123Z,30.30
2017-11-22T00:50:10.556Z,28.83
2017-11-22T00:52:37.788Z,32.97
2017-11-22T00:55:04.238Z,31.90
2017-11-22T00:57:30.679Z,31.97
2017-11-22T00:59:57.184Z,34.57
2017-11-22T01:02:23.651Z,29.97
2017-11-22T01:04:50.078Z,27.17
2017-11-22T01:07:16.630Z,26.47
2017-11-22T01:09:43.671Z,28.30
2017-11-22T01:12:10.109Z,23.33
2017-11-22T01:14:36.549Z,26.20
2017-11-22T01:17:02.996Z,23.67
2017-11-22T01:19:29.410Z,22.53
2017-11-22T01:21:55.844Z,22.63
2017-11-22T01:24:22.359Z,23.80
2017-11-22T01:26:49.443Z,23.43
2017-11-22T01:29:15.874Z,19.50
2017-11-22T01:31:42.299Z,30.90
2017-11-22T01:34:08.736Z,20.87
2017-11-22T01:36:35.177Z,26.23
2017-11-22T01:39:01.604Z,18.87
2017-11-22T01:41:28.038Z,24.20
2017-11-22T01:43:55.173Z,29.40
2017-11-22T01:46:21.615Z,21.37
2017-11-22T01:48:48.067Z,31.30
2017-11-22T01:51:14.474Z,29.63
2017-11-22T01:53:41.199Z,20.23
2017-11-22T01:56:07.669Z,19.97
2017-11-22T01:58:34.110Z,18.70
2017-11-22T02:01:01.266Z,24.20
2017-11-22T02:03:27.690Z,22.60
2017-11-22T02:05:54.133Z,21.83
2017-11-22T02:08:20.567Z,20.37
2017-11-22T02:10:46.994Z,27.93
2017-11-22T02:13:13.429Z,25.90
2017-11-22T02:15:39.863Z,29.40
2017-11-22T02:18:07.024Z,21.40
2017-11-22T02:20:33.459Z,21.93
2017-11-22T02:22:59.897Z,19.97
2017-11-22T02:25:26.327Z,23.33
2017-11-22T02:27:52.754Z,26.07
2017-11-22T02:30:19.128Z,30.33
2017-11-22T02:32:45.520Z,25.47
2017-11-22T02:35:12.671Z,24.03
2017-11-22T02:37:39.114Z,21.60
2017-11-22T02:40:05.541Z,29.07
2017-11-22T02:42:31.978Z,29.50
2017-11-22T02:44:58.411Z,34.50
2017-11-22T02:47:24.844Z,31.77
2017-11-22T02:49:51.280Z,29.80
2017-11-22T02:52:18.407Z,27.20
2017-11-22T02:54:44.875Z,26.83
2017-11-22T02:57:11.308Z,31.70
2017-11-22T02:59:37.735Z,34.13
2017-11-22T03:02:04.177Z,27.40
2017-11-22T03:04:30.603Z,25.17
2017-11-22T03:06:57.040Z,34.23
2017-11-22T03:09:24.295Z,22.57
2017-11-22T03:11:50.733Z,21.93
2017-11-22T03:14:17.128Z,21.77
2017-11-22T03:16:43.595Z,21.70
2017-11-22T03:19:10.038Z,22.10
2017-11-22T03:21:36.465Z,24.53
2017-11-22T03:24:03.011Z,24.70
2017-11-22T03:26:30.153Z,24.50
2017-11-22T03:28:56.594Z,27.13
2017-11-22T03:31:23.029Z,28.63
2017-11-22T03:33:49.458Z,31.70
2017-11-22T03:36:15.789Z,25.13
2017-11-22T03:38:42.226Z,23.07
2017-11-22T03:41:08.662Z,22.00
2017-11-22T03:43:35.818Z,25.20
2017-11-22T03:46:02.245Z,31.97
2017-11-22T03:48:28.688Z,37.20
2017-11-22T03:50:55.113Z,35.33
2017-11-22T03:53:21.553Z,27.50
2017-11-22T03:55:47.960Z,35.10
2017-11-22T03:58:14.419Z,35.57
2017-11-22T04:00:41.569Z,33.47
2017-11-22T04:03:08.106Z,36.20
2017-11-22T04:05:34.549Z,36.50
2017-11-22T04:08:00.985Z,31.37
2017-11-22T04:10:27.414Z,35.97
2017-11-22T04:12:53.792Z,30.53
2017-11-22T04:15:20.139Z,28.93
2017-11-22T04:17:47.411Z,28.10
2017-11-22T04:20:13.847Z,30.43
2017-11-22T04:22:40.299Z,29.07
2017-11-22T04:25:06.744Z,30.73
2017-11-22T04:27:33.103Z,29.33
2017-11-22T04:29:59.468Z,31.70
2017-11-22T04:32:25.943Z,32.00
2017-11-22T04:34:53.090Z,39.00
2017-11-22T04:37:19.533Z,29.73
2017-11-22T04:39:45.957Z,30.47
2017-11-22T04:42:12.392Z,30.27
2017-11-22T04:44:38.834Z,37.90
2017-11-22T04:47:05.261Z,28.43
2017-11-22T04:49:31.707Z,43.60
2017-11-22T04:51:58.952Z,69.53
2017-11-22T04:54:25.386Z,50.70
2017-11-22T04:56:51.765Z,58.53
2017-11-22T04:59:18.223Z,56.83
2017-11-22T05:01:44.665Z,46.47
2017-11-22T05:04:11.116Z,49.37
2017-11-22T05:06:37.556Z,58.33
2017-11-22T05:09:04.801Z,59.63
2017-11-22T05:11:31.245Z,73.80
2017-11-22T05:13:57.681Z,43.37
2017-11-22T05:16:24.124Z,43.30
2017-11-22T05:18:50.557Z,38.57
2017-11-22T05:21:16.986Z,43.20
2017-11-22T05:23:43.427Z,49.87
2017-11-22T05:26:10.577Z,42.07
2017-11-22T05:28:37.005Z,53.37
2017-11-22T05:31:03.440Z,35.80
2017-11-22T05:33:29.770Z,36.07
2017-11-22T05:35:56.209Z,72.70
2017-11-22T05:38:22.647Z,70.33
2017-11-22T05:40:49.075Z,68.13
2017-11-22T05:43:16.328Z,62.77
2017-11-22T05:45:42.765Z,55.97
2017-11-22T05:48:09.198Z,68.30
2017-11-22T05:50:35.641Z,61.13
2017-11-22T05:53:02.066Z,72.60
2017-11-22T05:55:28.500Z,68.83
2017-11-22T05:57:54.937Z,56.93
2017-11-22T06:00:22.079Z,64.57
2017-11-22T06:02:48.498Z,61.10
2017-11-22T06:05:14.956Z,64.10
2017-11-22T06:07:41.415Z,51.50
2017-11-22T06:10:07.826Z,53.03
2017-11-22T06:12:34.261Z,57.13
2017-11-22T06:15:00.695Z,62.97
2017-11-22T06:17:27.855Z,57.83
2017-11-22T06:19:54.294Z,41.83
2017-11-22T06:22:20.724Z,44.60
2017-11-22T06:24:47.087Z,49.37
2017-11-22T06:27:13.576Z,48.53
2017-11-22T06:29:40.020Z,61.00
2017-11-22T06:32:06.428Z,100.70
2017-11-22T06:34:33.333Z,160.67
2017-11-22T06:36:59.853Z,115.33
2017-11-22T06:39:26.271Z,74.00
2017-11-22T06:41:53.225Z,144.23
2017-11-22T06:44:19.652Z,159.37
2017-11-22T06:46:46.055Z,143.03
2017-11-22T06:49:12.529Z,85.70
2017-11-22T06:51:38.956Z,89.10
2017-11-22T06:54:05.497Z,65.27
2017-11-22T06:56:32.338Z,51.27
2017-11-22T06:58:58.779Z,65.57
2017-11-22T07:01:25.206Z,62.70
2017-11-22T07:03:52.061Z,58.63
2017-11-22T07:06:18.502Z,65.67
2017-11-22T07:08:44.928Z,82.17
2017-11-22T07:11:11.769Z,104.50
2017-11-22T07:13:38.198Z,88.17
2017-11-22T07:16:04.632Z,77.87
2017-11-22T07:18:31.382Z,62.90
2017-11-22T07:20:57.808Z,53.20
2017-11-22T07:23:24.242Z,58.83
2017-11-22T07:25:51.403Z,53.67
2017-11-22T07:28:17.833Z,107.43
2017-11-22T07:30:44.367Z,115.10
2017-11-22T07:33:11.007Z,84.37
2017-11-22T07:35:37.440Z,67.83
2017-11-22T07:38:03.985Z,114.07
2017-11-22T07:40:30.719Z,77.83
2017-11-22T07:42:57.262Z,81.10
2017-11-22T07:45:23.793Z,80.70
2017-11-22T07:47:50.751Z,75.50
2017-11-22T07:50:17.107Z,75.27
2017-11-22T07:52:43.470Z,85.43
2017-11-22T07:55:10.116Z,78.93
2017-11-22T07:57:36.589Z,63.63
2017-11-22T08:00:03.136Z,65.23
2017-11-22T08:02:29.739Z,62.23
2017-11-22T08:04:56.201Z,56.20
2017-11-22T08:07:22.635Z,52.30
2017-11-22T08:09:49.582Z,55.20
2017-11-22T08:12:16.011Z,55.40
2017-11-22T08:14:42.851Z,61.30
2017-11-22T08:17:09.699Z,60.63
2017-11-22T08:19:36.242Z,59.27
2017-11-22T08:22:02.724Z,53.57
2017-11-22T08:24:29.828Z,75.33
2017-11-22T08:26:56.356Z,80.47
2017-11-22T08:29:22.964Z,61.63
2017-11-22T08:31:50.047Z,45.03
2017-11-22T08:34:16.788Z,45.27
2017-11-22T08:36:43.536Z,29.33
2017-11-22T08:39:10.548Z,34.60
2017-11-22T08:41:37.325Z,28.90
2017-11-22T08:44:03.958Z,22.27
2017-11-22T08:46:30.910Z,37.10
2017-11-22T08:48:57.443Z,20.73
2017-11-22T08:51:23.776Z,37.20
2017-11-22T08:53:50.620Z,23.40
2017-11-22T08:56:17.064Z,24.60
2017-11-22T08:58:43.496Z,23.00
2017-11-22T09:01:10.438Z,19.20
2017-11-22T09:03:36.982Z,8.63
2017-11-22T09:06:03.488Z,7.47
2017-11-22T09:08:30.566Z,7.80
2017-11-22T09:10:57.028Z,8.47
2017-11-22T09:13:23.644Z,11.20
2017-11-22T09:15:50.766Z,11.20
2017-11-22T09:18:17.218Z,7.70
2017-11-22T09:20:43.969Z,8.30
2017-11-22T09:23:10.496Z,9.80
2017-11-22T09:25:37.034Z,10.37
2017-11-22T09:28:03.468Z,11.77
2017-11-22T09:30:29.939Z,9.80
2017-11-22T09:32:56.448Z,9.23
2017-11-22T09:35:22.875Z,10.90
2017-11-22T09:37:49.521Z,6.77
2017-11-22T09:40:16.153Z,6.70
2017-11-22T09:42:42.589Z,7.20
2017-11-22T09:45:09.031Z,7.70
2017-11-22T09:47:35.460Z,11.73
2017-11-22T09:50:02.198Z,8.70
2017-11-22T09:52:28.642Z,12.27
2017-11-22T09:54:55.068Z,8.03
2017-11-22T09:57:21.706Z,7.17
2017-11-22T09:59:48.253Z,7.03
2017-11-22T10:02:14.683Z,7.30
2017-11-22T10:04:41.527Z,8.13
2017-11-22T10:07:08.073Z,7.73
2017-11-22T10:09:34.701Z,6.30
2017-11-22T10:12:01.752Z,7.17
2017-11-22T10:14:28.186Z,6.23
2017-11-22T10:16:54.621Z,7.33
2017-11-22T10:19:21.487Z,7.10
2017-11-22T10:21:48.520Z,6.63
2017-11-22T10:24:14.946Z,9.40
2017-11-22T10:26:41.588Z,6.43
2017-11-22T10:29:08.236Z,7.53
2017-11-22T10:31:34.866Z,7.00
2017-11-22T10:34:01.514Z,6.60
2017-11-22T10:36:28.049Z,7.60
2017-11-22T10:38:55.092Z,6.43
2017-11-22T10:41:21.737Z,9.40
2017-11-22T10:43:48.277Z,6.40
2017-11-22T10:46:14.704Z,10.20
2017-11-22T10:48:41.343Z,7.67
2017-11-22T10:51:07.775Z,6.53
2017-11-22T10:53:34.210Z,7.00
2017-11-22T10:56:00.952Z,6.87
2017-11-22T10:58:27.660Z,7.33
2017-11-22T11:00:54.203Z,6.60
2017-11-22T11:03:21.698Z,6.40
2017-11-22T11:05:48.314Z,8.73
2017-11-22T11:08:15.399Z,9.00
2017-11-22T11:10:42.427Z,9.30
2017-11-22T11:13:08.972Z,7.13
2017-11-22T11:15:35.435Z,14.30
2017-11-22T11:18:02.252Z,15.20
2017-11-22T11:20:29.128Z,9.83
2017-11-22T11:22:56.237Z,31.43
2017-11-22T11:25:22.672Z,8.10
2017-11-22T11:27:49.628Z,11.10
2017-11-22T11:30:16.136Z,8.10
2017-11-22T11:32:42.599Z,12.00
2017-11-22T11:35:09.947Z,8.60
2017-11-22T11:37:36.691Z,7.83
2017-11-22T11:40:03.461Z,8.80
2017-11-22T11:42:30.684Z,12.53
2017-11-22T11:44:57.528Z,6.83
2017-11-22T11:47:24.465Z,9.87
2017-11-22T11:49:51.533Z,14.50
2017-11-22T11:52:18.071Z,12.23
2017-11-22T11:54:44.497Z,7.23
2017-11-22T11:57:11.350Z,6.97
2017-11-22T11:59:37.776Z,8.33
2017-11-22T12:02:04.231Z,6.53
2017-11-22T12:04:30.951Z,9.30
2017-11-22T12:06:57.386Z,7.27
2017-11-22T12:09:23.933Z,6.27
2017-11-22T12:11:50.868Z,6.33
2017-11-22T12:14:17.304Z,6.40
2017-11-22T12:16:43.746Z,6.27
2017-11-22T12:19:10.275Z,7.37
2017-11-22T12:21:37.333Z,8.90
2017-11-22T12:24:04.390Z,8.43
2017-11-22T12:26:30.808Z,12.33
2017-11-22T12:28:57.551Z,7.77
2017-11-22T12:31:23.993Z,7.53
2017-11-22T12:33:50.726Z,7.60
2017-11-22T12:36:17.677Z,11.23
2017-11-22T12:38:44.311Z,8.90
2017-11-22T12:41:10.852Z,7.43
2017-11-22T12:43:37.491Z,11.40
2017-11-22T12:46:03.923Z,14.37
2017-11-22T12:48:30.471Z,23.23
2017-11-22T12:50:57.212Z,11.17
2017-11-22T12:53:24.149Z,12.63
2017-11-22T12:55:50.583Z,8.90
2017-11-22T12:58:17.018Z,10.83
2017-11-22T13:00:43.660Z,215.07
2017-11-22T13:03:10.297Z,12.73
2017-11-22T13:05:36.731Z,9.20
2017-11-22T13:08:03.099Z,11.20
2017-11-22T13:10:29.609Z,8.63
2017-11-22T13:12:56.556Z,16.10
2017-11-22T13:15:22.981Z,8.23
2017-11-22T13:17:50.049Z,14.40
2017-11-22T13:20:17.294Z,7.87
2017-11-22T13:22:43.791Z,9.00
2017-11-22T13:25:11.040Z,7.23
2017-11-22T13:27:37.513Z,7.30
2017-11-22T13:30:04.047Z,15.83
2017-11-22T13:32:30.490Z,9.70
2017-11-22T13:34:57.020Z,10.87
2017-11-22T13:37:23.454Z,14.50
2017-11-22T13:39:50.000Z,8.13
2017-11-22T13:42:16.428Z,7.50
2017-11-22T13:44:43.003Z,9.50
2017-11-22T13:47:09.398Z,9.93
2017-11-22T13:49:35.942Z,10.53
2017-11-22T13:52:02.310Z,18.50
2017-11-22T13:54:29.217Z,19.20
2017-11-22T13:56:55.648Z,14.37
2017-11-22T13:59:22.203Z,10.83
2017-11-22T14:01:49.242Z,15.27
2017-11-22T14:04:16.291Z,27.90
2017-11-22T14:06:42.827Z,14.50
2017-11-22T14:09:09.766Z,10.50
2017-11-22T14:11:36.206Z,10.63
2017-11-22T14:14:02.737Z,9.33
2017-11-22T14:16:29.692Z,13.83
2017-11-22T14:18:56.229Z,19.30
2017-11-22T14:21:22.664Z,17.93
2017-11-22T14:23:49.510Z,11.60
2017-11-22T14:26:16.148Z,19.90
2017-11-22T14:28:42.676Z,17.80
2017-11-22T14:31:09.630Z,26.90
2017-11-22T14:33:36.171Z,13.90
2017-11-22T14:36:02.707Z,15.73
2017-11-22T14:38:29.449Z,8.17
2017-11-22T14:40:55.984Z,8.10
2017-11-22T14:43:22.411Z,14.63
2017-11-22T14:45:50.288Z,16.73
2017-11-22T14:48:16.825Z,8.37
2017-11-22T14:50:43.324Z,21.67
2017-11-22T14:53:10.197Z,22.03
2017-11-22T14:55:36.742Z,13.70
2017-11-22T14:58:03.281Z,16.13
2017-11-22T15:00:30.117Z,8.37
2017-11-22T15:02:56.549Z,24.30
2017-11-22T15:05:23.023Z,14.10
2017-11-22T15:07:49.727Z,13.73
2017-11-22T15:10:17.268Z,8.07
2017-11-22T15:12:43.926Z,7.10
2017-11-22T15:15:11.189Z,10.30
2017-11-22T15:17:37.616Z,7.97
2017-11-22T15:20:04.162Z,13.70
2017-11-22T15:22:30.594Z,29.17
2017-11-22T15:24:56.955Z,26.93
2017-11-22T15:27:23.353Z,48.07
2017-11-22T15:29:50.001Z,55.20
2017-11-22T15:32:16.400Z,53.23
2017-11-22T15:34:42.871Z,29.03
2017-11-22T15:37:09.308Z,33.20
2017-11-22T15:39:35.651Z,31.93
2017-11-22T15:42:02.064Z,27.37
2017-11-22T15:44:28.683Z,18.83
2017-11-22T15:46:55.141Z,18.73
2017-11-22T15:49:21.573Z,42.50
2017-11-22T15:51:48.211Z,57.60
2017-11-22T15:54:14.656Z,51.67
2017-11-22T15:56:41.081Z,47.97
2017-11-22T15:59:07.518Z,56.43
2017-11-22T16:01:33.953Z,80.60
2017-11-22T16:04:00.386Z,50.57
2017-11-22T16:06:26.825Z,59.00
2017-11-22T16:08:53.254Z,54.43
2017-11-22T16:11:19.698Z,77.77
2017-11-22T16:13:46.132Z,89.40
2017-11-22T16:16:12.560Z,91.67
2017-11-22T16:18:38.995Z,101.43
2017-11-22T16:21:05.430Z,91.03
2017-11-22T16:23:31.863Z,63.70
2017-11-22T16:25:58.307Z,65.03
2017-11-22T16:28:24.736Z,98.13
2017-11-22T16:30:51.167Z,119.63
2017-11-22T16:33:17.615Z,120.80
2017-11-22T16:35:44.148Z,113.40
2017-11-22T16:38:10.581Z,110.77
2017-11-22T16:40:36.980Z,105.50
2017-11-22T16:43:03.442Z,114.03
2017-11-22T16:45:29.876Z,94.67
2017-11-22T16:47:56.311Z,49.90
2017-11-22T16:50:22.742Z,61.03
2017-11-22T16:52:49.186Z,38.90
2017-11-22T16:55:15.622Z,64.33
2017-11-22T16:57:42.166Z,57.73
2017-11-22T17:00:08.577Z,66.27
2017-11-22T17:02:34.955Z,50.87
2017-11-22T17:05:02.173Z,65.93
2017-11-22T17:07:28.607Z,79.63
2017-11-22T17:09:54.974Z,84.13
2017-11-22T17:12:21.409Z,83.67
2017-11-22T17:14:47.911Z,70.50
2017-11-22T17:17:14.357Z,66.27
2017-11-22T17:19:40.794Z,62.63
2017-11-22T17:22:07.931Z,25.83
2017-11-22T17:24:34.374Z,29.43
2017-11-22T17:27:00.801Z,36.53
2017-11-22T17:29:27.179Z,29.83
2017-11-22T17:31:53.669Z,17.83
2017-11-22T17:34:20.113Z,19.43
2017-11-22T17:36:46.541Z,23.70
2017-11-22T17:39:13.792Z,15.67
2017-11-22T17:41:40.228Z,15.17
2017-11-22T17:44:06.670Z,17.67
2017-11-22T17:46:33.105Z,18.00
2017-11-22T17:48:59.540Z,23.13
2017-11-22T17:51:25.965Z,31.00
2017-11-22T17:53:52.409Z,19.87
2017-11-22T17:56:19.551Z,19.40
2017-11-22T17:58:46.096Z,16.43
2017-11-22T18:01:12.531Z,16.50
2017-11-22T18:03:38.965Z,17.50
2017-11-22T18:06:05.393Z,19.40
2017-11-22T18:08:31.836Z,16.90
2017-11-22T18:10:58.257Z,17.80
2017-11-22T18:13:25.422Z,17.70
2017-11-22T18:15:51.848Z,18.87
2017-11-22T18:18:18.385Z,29.43
2017-11-22T18:20:44.824Z,22.30
2017-11-22T18:23:11.261Z,53.63
2017-11-22T18:25:37.588Z,33.20
2017-11-22T18:28:04.127Z,20.17
2017-11-22T18:30:31.276Z,26.87
2017-11-22T18:32:57.605Z,19.80
2017-11-22T18:35:24.050Z,19.73
2017-11-22T18:37:50.505Z,24.00
2017-11-22T18:40:17.021Z,18.20
2017-11-22T18:42:43.448Z,23.33
2017-11-22T18:45:09.891Z,19.47
2017-11-22T18:47:37.135Z,23.10
2017-11-22T18:50:03.571Z,24.37
2017-11-22T18:52:30.005Z,32.10
2017-11-22T18:54:56.440Z,26.33
2017-11-22T18:57:22.874Z,36.20
2017-11-22T18:59:49.320Z,26.60
2017-11-22T19:02:15.974Z,42.13
2017-11-22T19:04:42.940Z,39.83
2017-11-22T19:07:09.432Z,49.73
2017-11-22T19:09:35.875Z,40.13
2017-11-22T19:12:02.608Z,32.77
2017-11-22T19:14:29.768Z,50.37
2017-11-22T19:16:56.966Z,54.17
2017-11-22T19:19:24.069Z,53.80
2017-11-22T19:21:51.222Z,45.80
2017-11-22T19:24:18.367Z,39.33
2017-11-22T19:26:45.527Z,47.97
2017-11-22T19:29:12.464Z,61.97
2017-11-22T19:31:39.315Z,24.00
2017-11-22T19:34:05.751Z,44.97
2017-11-22T19:36:32.186Z,53.50
2017-11-22T19:38:58.611Z,57.63
2017-11-22T19:41:25.025Z,60.10
2017-11-22T19:43:51.482Z,57.23
2017-11-22T19:46:18.495Z,61.30
2017-11-22T19:48:45.376Z,61.57
2017-11-22T19:51:12.495Z,57.93
2017-11-22T19:53:39.583Z,48.20
2017-11-22T19:56:06.570Z,45.83
2017-11-22T19:58:33.477Z,52.47
2017-11-22T20:01:00.321Z,57.57
2017-11-22T20:03:26.748Z,44.77
2017-11-22T20:05:53.191Z,48.90
2017-11-22T20:08:19.617Z,36.13
2017-11-22T20:10:46.050Z,41.40
2017-11-22T20:13:13.313Z,38.13
2017-11-22T20:15:39.738Z,32.40
2017-11-22T20:18:06.176Z,35.80
2017-11-22T20:20:32.618Z,37.80
2017-11-22T20:22:59.052Z,44.20
2017-11-22T20:25:25.486Z,41.60
2017-11-22T20:27:51.920Z,55.83
2017-11-22T20:30:19.064Z,34.13
2017-11-22T20:32:45.497Z,45.13
2017-11-22T20:35:11.933Z,78.47
2017-11-22T20:37:38.370Z,73.53
2017-11-22T20:40:04.809Z,38.20
2017-11-22T20:42:31.247Z,21.43
2017-11-22T20:44:57.672Z,23.40
2017-11-22T20:47:24.935Z,20.50
2017-11-22T20:49:51.361Z,22.63
2017-11-22T20:52:17.796Z,22.33
2017-11-22T20:54:44.231Z,18.30
2017-11-22T20:57:10.672Z,15.77
2017-11-22T20:59:37.100Z,31.50
2017-11-22T21:02:03.532Z,34.77
2017-11-22T21:04:30.692Z,28.47
2017-11-22T21:06:57.127Z,26.87
2017-11-22T21:09:23.665Z,38.03
2017-11-22T21:11:50.094Z,32.47
2017-11-22T21:14:16.525Z,36.53
2017-11-22T21:16:42.970Z,34.33
2017-11-22T21:19:09.351Z,43.97
2017-11-22T21:21:36.545Z,34.63
2017-11-22T21:24:02.916Z,28.90
2017-11-22T21:26:29.279Z,33.03
2017-11-22T21:28:55.747Z,39.63
2017-11-22T21:31:22.183Z,46.53
2017-11-22T21:33:48.626Z,37.13
2017-11-22T21:36:15.052Z,43.83
2017-11-22T21:38:42.212Z,23.53
2017-11-22T21:41:08.640Z,19.80
2017-11-22T21:43:35.073Z,19.77
2017-11-22T21:46:01.510Z,13.83
2017-11-22T21:48:28.053Z,17.43
2017-11-22T21:50:54.505Z,19.77
2017-11-22T21:53:20.929Z,28.40
2017-11-22T21:55:48.177Z,25.50
2017-11-22T21:58:14.612Z,30.20
2017-11-22T22:00:41.037Z,42.00
2017-11-22T22:03:07.480Z,33.13
2017-11-22T22:05:33.907Z,36.57
2017-11-22T22:08:00.351Z,29.57
2017-11-22T22:10:26.776Z,27.80
2017-11-22T22:12:54.033Z,31.40
2017-11-22T22:15:20.464Z,20.90
2017-11-22T22:17:46.898Z,20.20
2017-11-22T22:20:13.332Z,34.93
2017-11-22T22:22:39.771Z,22.33
2017-11-22T22:25:06.312Z,25.70
2017-11-22T22:27:32.853Z,20.70
2017-11-22T22:29:59.890Z,10.60
2017-11-22T22:32:26.324Z,9.10
2017-11-22T22:34:52.759Z,16.57
2017-11-22T22:37:19.193Z,35.50
2017-11-22T22:39:45.525Z,26.60
2017-11-22T22:42:11.961Z,31.27
2017-11-22T22:44:38.394Z,22.27
2017-11-22T22:47:05.546Z,27.17
2017-11-22T22:49:32.064Z,29.40
2017-11-22T22:51:58.517Z,25.03
2017-11-22T22:54:24.887Z,23.13
2017-11-22T22:56:51.215Z,20.13
2017-11-22T22:59:17.554Z,17.60
2017-11-22T23:01:43.949Z,16.73
2017-11-22T23:04:11.099Z,18.47
2017-11-22T23:06:37.536Z,21.30
2017-11-22T23:09:03.971Z,20.33
2017-11-22T23:11:30.404Z,21.43
2017-11-22T23:13:56.840Z,14.00
2017-11-22T23:16:23.273Z,15.27
2017-11-22T23:18:49.708Z,17.80
2017-11-22T23:21:16.860Z,21.47
2017-11-22T23:23:43.294Z,14.20
2017-11-22T23:26:09.729Z,15.27
2017-11-22T23:28:36.163Z,15.97
2017-11-22T23:31:02.599Z,10.30
2017-11-22T23:33:29.033Z,11.30
2017-11-22T23:35:55.468Z,11.40
2017-11-22T23:38:22.703Z,28.90
2017-11-22T23:40:49.157Z,33.47
2017-11-22T23:43:15.589Z,27.03
2017-11-22T23:45:42.026Z,33.20
2017-11-22T23:48:08.467Z,33.13
2017-11-22T23:50:34.894Z,25.80
2017-11-22T23:53:01.331Z,33.63
2017-11-22T23:55:28.480Z,32.57
2017-11-22T23:57:54.848Z,21.80
